No1 Tokuyama — JK5318 — position and weather

sailwx.info

Track history (hours):
 
Tides and Currents Weather Stations Pressure Air Temp Water Temp Dewpoint Dewpoint Depression Visibility Wind Speed Wind Dir Waves Ship Positions

No1 Tokuyama

Last reported at 2015-Mar-28 14:31 UTC. Time now 2015-Mar-28 17:48 UTC.
Position N 34°32' E 134°43'.

Length 110 m; draft 5.4 m.

Type: Cargo ship. MMSI: 431400487.

Date/timePositionNaut miles runAvg speedWind from/ knotsBaromVisibWave heightAir tempDewpointWater temp
2015-Mar-28 14:31N 34°32' E 134°43'1212.7
2015-Mar-28 13:33N 34°37' E 134°57'1111.5
2015-Mar-28 12:33N 34°36' E 135°11'1212.5
2015-Mar-28 11:33N 34°39' E 135°26'1 0.8
2015-Mar-28 10:33N 34°39' E 135°27'0 0.0
2015-Mar-28 09:31N 34°39' E 135°27'0 0.0
2015-Mar-28 08:25N 34°39' E 135°27'0 0.0
2015-Mar-28 07:31N 34°39' E 135°27'0 0.0
2015-Mar-28 06:31N 34°39' E 135°27'4 4.2
2015-Mar-28 05:33N 34°37' E 135°22'1312.9
2015-Mar-28 04:33N 34°35' E 135°07'1212.3
2015-Mar-28 03:33N 34°37' E 134°52'11 0.4
2015-Mar-27 00:15N 34°41' E 134°40'  
2015-Mar-19 07:11N 34°32' E 134°44'913.5
2015-Mar-19 06:33N 34°36' E 134°53'9 8.9
2015-Mar-19 05:33N 34°36' E 135°04'1212.2
2015-Mar-19 04:33N 34°37' E 135°19'7 6.8
2015-Mar-19 03:33N 34°39' E 135°27'0 0.0
2015-Mar-19 02:32N 34°39' E 135°27'0 0.0
2015-Mar-19 01:32N 34°39' E 135°27'0 0.0
2015-Mar-19 00:32N 34°39' E 135°27'0 0.0
2015-Mar-18 23:32N 34°39' E 135°27'0 0.0
2015-Mar-18 22:32N 34°39' E 135°27'0 0.0
2015-Mar-18 21:32N 34°39' E 135°27'0 0.0
2015-Mar-18 20:26N 34°39' E 135°27'0 0.0
2015-Mar-18 19:32N 34°39' E 135°27'0 0.0
2015-Mar-18 18:32N 34°39' E 135°27'0 0.0
2015-Mar-18 17:32N 34°39' E 135°27'0 0.0
2015-Mar-18 16:26N 34°39' E 135°27'0 0.0
2015-Mar-18 15:32N 34°39' E 135°27'0 0.0
2015-Mar-18 14:32N 34°39' E 135°27'  
Track history (hours):
 
Tides and Currents Weather Stations Pressure Air Temp Water Temp Dewpoint Dewpoint Depression Visibility Wind Speed Wind Dir Waves Ship Positions

No1 Tokuyama

Last reported at 2015-Mar-28 14:31 UTC. Time now 2015-Mar-28 17:48 UTC.
Position N 34°32' E 134°43'.

Length 110 m; draft 5.4 m.

Type: Cargo ship. MMSI: 431400487.

Date/timePositionNaut miles runAvg speedWind from/ knotsBaromVisibWave heightAir tempDewpointWater temp
2015-Mar-28 14:31N 34°32' E 134°43'1212.7
2015-Mar-28 13:33N 34°37' E 134°57'1111.5
2015-Mar-28 12:33N 34°36' E 135°11'1212.5
2015-Mar-28 11:33N 34°39' E 135°26'1 0.8
2015-Mar-28 10:33N 34°39' E 135°27'0 0.0
2015-Mar-28 09:31N 34°39' E 135°27'0 0.0
2015-Mar-28 08:25N 34°39' E 135°27'0 0.0
2015-Mar-28 07:31N 34°39' E 135°27'0 0.0
2015-Mar-28 06:31N 34°39' E 135°27'4 4.2
2015-Mar-28 05:33N 34°37' E 135°22'1312.9
2015-Mar-28 04:33N 34°35' E 135°07'1212.3
2015-Mar-28 03:33N 34°37' E 134°52'11 0.4
2015-Mar-27 00:15N 34°41' E 134°40'  
2015-Mar-19 07:11N 34°32' E 134°44'913.5
2015-Mar-19 06:33N 34°36' E 134°53'9 8.9
2015-Mar-19 05:33N 34°36' E 135°04'1212.2
2015-Mar-19 04:33N 34°37' E 135°19'7 6.8
2015-Mar-19 03:33N 34°39' E 135°27'0 0.0
2015-Mar-19 02:32N 34°39' E 135°27'0 0.0
2015-Mar-19 01:32N 34°39' E 135°27'0 0.0
2015-Mar-19 00:32N 34°39' E 135°27'0 0.0
2015-Mar-18 23:32N 34°39' E 135°27'0 0.0
2015-Mar-18 22:32N 34°39' E 135°27'0 0.0
2015-Mar-18 21:32N 34°39' E 135°27'0 0.0
2015-Mar-18 20:26N 34°39' E 135°27'0 0.0
2015-Mar-18 19:32N 34°39' E 135°27'0 0.0
2015-Mar-18 18:32N 34°39' E 135°27'0 0.0
2015-Mar-18 17:32N 34°39' E 135°27'0 0.0
2015-Mar-18 16:26N 34°39' E 135°27'0 0.0
2015-Mar-18 15:32N 34°39' E 135°27'0 0.0
2015-Mar-18 14:32N 34°39' E 135°27'  

Dump ship's entire track history